Main page
Satellite images 15-day forecastsClimateMarine weather Cyclones Lightning AirportsFAQ Newsletter About
Weather : Europe Africa North America South America Asia Australia-Oceania Others
Languages Contact

Podgorica, Montenegro

latitude: 42-26N, longitude: 019-17E, elevation: 53 m


METAR: LYPG 240900Z 32007KT 290V360 CAVOK 15/03 Q1008 NOSIG
TAF: LYPG 240500Z 2406/2506 34008KT 9999 SCT040 BKN080 TX17/2413Z TN07/2405Z TEMPO 2408/2506 02015G25KT

Time: 11:32 (09:32 UTC)

Current weather observation

The report was made 32 minutes ago, at 09:00 UTC
Wind 7 kt from the Northwest, varying between West/Northwest and North
Temperature 15°C
Humidity 44%
Pressure 1008 hPa
Visibility 10 km or more
no clouds below 1500 m and no cumulonimbus

Change units

Forecast

The report was made 4 hours and 32 minutes ago, at 05:00 UTC
Forecast valid from 24 at 06 UTC to 25 at 06 UTC
Wind 8 kt from the North/Northwest
Visibility 10 km or more
Scattered clouds at a height of 4000 ft
Broken clouds at a height of 8000 ft
Temporary
from 24 at 08 UTC to 25 at 06 UTC
Wind 15 kt from the North/Northeast with gusts up to 25 kt
The information on this site is subject to a disclaimer
Weather : Europe Africa North America South America Asia Australia-Oceania Others
Satellite images 15-day forecastsClimateMarine weather Cyclones Lightning AirportsFAQ Languages Contact Newsletter About